createdAt,value
2018-10-17T00:00:14.692Z,60.75
2018-10-17T00:02:43.351Z,60.69
2018-10-17T00:05:11.850Z,61.16
2018-10-17T00:07:40.335Z,60.58
2018-10-17T00:10:10.181Z,60.49
2018-10-17T00:12:39.169Z,60.90
2018-10-17T00:15:08.306Z,60.35
2018-10-17T00:17:36.762Z,60.39
2018-10-17T00:20:05.855Z,60.84
2018-10-17T00:22:34.329Z,61.41
2018-10-17T00:25:02.868Z,61.30
2018-10-17T00:27:31.323Z,61.09
2018-10-17T00:29:59.872Z,60.82
2018-10-17T00:32:28.351Z,61.84
2018-10-17T00:34:56.855Z,61.31
2018-10-17T00:37:25.299Z,61.60
2018-10-17T00:39:53.775Z,62.04
2018-10-17T00:42:22.234Z,62.02
2018-10-17T00:44:50.703Z,62.02
2018-10-17T00:47:19.202Z,62.89
2018-10-17T00:49:47.671Z,62.27
2018-10-17T00:52:16.156Z,62.65
2018-10-17T00:54:44.652Z,62.31
2018-10-17T00:57:13.114Z,62.57
2018-10-17T00:59:41.590Z,63.34
2018-10-17T01:02:10.047Z,62.76
2018-10-17T01:04:38.519Z,62.85
2018-10-17T01:07:07.034Z,63.16
2018-10-17T01:09:35.478Z,63.51
2018-10-17T01:12:04.017Z,63.72
2018-10-17T01:14:32.445Z,63.65
2018-10-17T01:17:00.963Z,63.36
2018-10-17T01:19:29.406Z,63.88
2018-10-17T01:21:57.874Z,63.93
2018-10-17T01:24:26.362Z,64.00
2018-10-17T01:26:54.889Z,63.51
2018-10-17T01:29:23.356Z,63.24
2018-10-17T01:31:51.828Z,63.60
2018-10-17T01:34:20.332Z,63.95
2018-10-17T01:36:49.018Z,63.97
2018-10-17T01:39:17.528Z,64.27
2018-10-17T01:41:46.102Z,63.78
2018-10-17T01:44:14.690Z,63.78
2018-10-17T01:46:43.190Z,64.20
2018-10-17T01:49:11.828Z,64.23
2018-10-17T01:51:40.229Z,63.79
2018-10-17T01:54:08.714Z,64.04
2018-10-17T01:56:37.316Z,64.41
2018-10-17T01:59:06.426Z,64.45
2018-10-17T02:01:34.882Z,64.05
2018-10-17T02:04:03.355Z,64.06
2018-10-17T02:06:31.931Z,63.97
2018-10-17T02:09:00.515Z,64.67
2018-10-17T02:11:29.018Z,64.85
2018-10-17T02:13:57.643Z,64.80
2018-10-17T02:16:26.125Z,64.76
2018-10-17T02:18:54.646Z,64.91
2018-10-17T02:21:23.087Z,64.98
2018-10-17T02:23:51.575Z,64.95
2018-10-17T02:26:20.339Z,64.57
2018-10-17T02:28:48.820Z,65.05
2018-10-17T02:31:17.338Z,64.44
2018-10-17T02:33:45.776Z,64.49
2018-10-17T02:36:14.237Z,64.52
2018-10-17T02:38:42.875Z,64.52
2018-10-17T02:41:11.408Z,64.60
2018-10-17T02:43:39.814Z,64.77
2018-10-17T02:46:08.305Z,64.85
2018-10-17T02:48:36.787Z,64.86
2018-10-17T02:51:05.314Z,65.27
2018-10-17T02:53:33.785Z,64.87
2018-10-17T02:56:02.264Z,64.78
2018-10-17T02:58:30.756Z,64.87
2018-10-17T03:00:59.316Z,64.83
2018-10-17T03:03:27.730Z,65.59
2018-10-17T03:05:56.254Z,65.42
2018-10-17T03:08:24.714Z,64.99
2018-10-17T03:10:53.240Z,65.31
2018-10-17T03:13:21.707Z,64.82
2018-10-17T03:15:50.191Z,64.97
2018-10-17T03:18:18.656Z,65.11
2018-10-17T03:20:47.155Z,64.96
2018-10-17T03:23:15.667Z,64.67
2018-10-17T03:25:44.103Z,65.30
2018-10-17T03:28:12.587Z,65.01
2018-10-17T03:30:41.076Z,64.08
2018-10-17T03:33:09.562Z,62.30
2018-10-17T03:35:38.045Z,62.09
2018-10-17T03:38:06.623Z,61.63
2018-10-17T03:40:35.376Z,61.17
2018-10-17T03:43:03.905Z,61.17
2018-10-17T03:45:32.373Z,61.59
2018-10-17T03:48:00.879Z,62.13
2018-10-17T03:50:29.599Z,61.64
2018-10-17T03:52:58.130Z,61.88
2018-10-17T03:55:26.631Z,61.98
2018-10-17T03:57:55.107Z,61.38
2018-10-17T04:00:23.574Z,61.41
2018-10-17T04:02:52.045Z,61.46
2018-10-17T04:05:20.541Z,61.60
2018-10-17T04:07:49.011Z,61.83
2018-10-17T04:10:17.481Z,61.87
2018-10-17T04:12:46.002Z,62.97
2018-10-17T04:15:14.486Z,62.66
2018-10-17T04:17:42.946Z,63.22
2018-10-17T04:20:11.411Z,62.79
2018-10-17T04:22:44.346Z,63.46
2018-10-17T04:25:12.870Z,63.72
2018-10-17T04:27:41.272Z,63.84
2018-10-17T04:30:09.735Z,63.82
2018-10-17T04:32:38.219Z,63.36
2018-10-17T04:35:06.819Z,63.50
2018-10-17T04:37:35.204Z,64.00
2018-10-17T04:40:03.690Z,63.93
2018-10-17T04:42:33.096Z,63.88
2018-10-17T04:45:01.580Z,63.64
2018-10-17T04:47:30.148Z,64.24
2018-10-17T04:49:58.583Z,63.70
2018-10-17T04:52:27.945Z,64.29
2018-10-17T04:54:56.558Z,63.96
2018-10-17T04:57:24.959Z,64.15
2018-10-17T04:59:53.490Z,64.45
2018-10-17T05:02:22.035Z,63.95
2018-10-17T05:04:50.547Z,64.35
2018-10-17T05:07:19.044Z,64.53
2018-10-17T05:09:47.515Z,64.20
2018-10-17T05:12:15.992Z,64.58
2018-10-17T05:14:44.542Z,64.14
2018-10-17T05:17:13.099Z,64.23
2018-10-17T05:19:41.519Z,64.42
2018-10-17T05:22:10.497Z,64.00
2018-10-17T05:24:39.156Z,64.21
2018-10-17T05:27:07.673Z,64.39
2018-10-17T05:29:36.170Z,64.40
2018-10-17T05:32:04.770Z,64.86
2018-10-17T05:34:33.309Z,64.72
2018-10-17T05:37:01.814Z,64.76
2018-10-17T05:39:30.292Z,64.52
2018-10-17T05:41:58.980Z,64.28
2018-10-17T05:44:27.636Z,64.69
2018-10-17T05:46:56.221Z,64.45
2018-10-17T05:49:24.674Z,65.01
2018-10-17T05:51:53.172Z,65.00
2018-10-17T05:54:21.647Z,64.58
2018-10-17T05:56:50.117Z,64.53
2018-10-17T05:59:18.598Z,64.44
2018-10-17T06:01:47.316Z,64.34
2018-10-17T06:04:15.639Z,64.62
2018-10-17T06:06:44.107Z,64.71
2018-10-17T06:09:12.901Z,64.32
2018-10-17T06:11:41.814Z,65.32
2018-10-17T06:14:17.815Z,64.64
2018-10-17T06:16:46.896Z,64.87
2018-10-17T06:19:15.627Z,65.27
2018-10-17T06:21:44.114Z,65.14
2018-10-17T06:24:12.595Z,64.77
2018-10-17T06:26:41.069Z,65.15
2018-10-17T06:29:09.655Z,65.01
2018-10-17T06:31:38.070Z,64.93
2018-10-17T06:34:06.711Z,64.62
2018-10-17T06:36:35.103Z,65.00
2018-10-17T06:39:03.931Z,65.19
2018-10-17T06:41:32.396Z,64.54
2018-10-17T06:44:00.988Z,65.18
2018-10-17T06:46:29.379Z,64.82
2018-10-17T06:48:57.876Z,65.52
2018-10-17T06:51:26.352Z,65.21
2018-10-17T06:53:54.891Z,64.82
2018-10-17T06:56:23.363Z,65.41
2018-10-17T06:58:51.899Z,64.99
2018-10-17T07:01:20.360Z,65.61
2018-10-17T07:03:48.840Z,65.05
2018-10-17T07:06:17.326Z,65.04
2018-10-17T07:08:46.659Z,65.54
2018-10-17T07:11:15.236Z,64.95
2018-10-17T07:13:43.626Z,64.86
2018-10-17T07:16:12.093Z,65.20
2018-10-17T07:18:40.566Z,65.61
2018-10-17T07:21:09.062Z,65.54
2018-10-17T07:23:37.534Z,65.16
2018-10-17T07:26:06.116Z,65.22
2018-10-17T07:28:34.615Z,65.57
2018-10-17T07:31:03.135Z,65.57
2018-10-17T07:33:31.600Z,65.85
2018-10-17T07:36:00.075Z,65.47
2018-10-17T07:38:28.550Z,65.37
2018-10-17T07:40:57.063Z,65.08
2018-10-17T07:43:25.546Z,65.39
2018-10-17T07:45:54.010Z,65.36
2018-10-17T07:48:22.489Z,65.83
2018-10-17T07:50:50.967Z,65.92
2018-10-17T07:53:19.509Z,65.88
2018-10-17T07:55:48.004Z,66.02
2018-10-17T07:58:16.473Z,65.47
2018-10-17T08:00:44.942Z,65.92
2018-10-17T08:03:13.418Z,66.14
2018-10-17T08:05:41.892Z,65.91
2018-10-17T08:08:10.371Z,65.51
2018-10-17T08:10:38.863Z,65.78
2018-10-17T08:13:07.359Z,66.16
2018-10-17T08:15:35.842Z,65.59
2018-10-17T08:18:04.346Z,65.48
2018-10-17T08:20:32.822Z,66.35
2018-10-17T08:23:01.307Z,66.00
2018-10-17T08:25:29.779Z,65.51
2018-10-17T08:27:58.257Z,65.67
2018-10-17T08:30:26.759Z,65.74
2018-10-17T08:32:55.238Z,66.10
2018-10-17T08:35:23.787Z,65.92
2018-10-17T08:37:52.669Z,65.67
2018-10-17T08:40:20.703Z,66.18
2018-10-17T08:42:49.202Z,65.71
2018-10-17T08:45:17.775Z,65.92
2018-10-17T08:47:46.227Z,65.96
2018-10-17T08:50:14.823Z,66.45
2018-10-17T08:52:43.271Z,65.88
2018-10-17T08:55:11.748Z,65.93
2018-10-17T08:57:40.283Z,65.93
2018-10-17T09:00:08.851Z,65.93
2018-10-17T09:02:37.364Z,65.98
2018-10-17T09:05:05.835Z,66.43
2018-10-17T09:07:34.329Z,65.99
2018-10-17T09:10:02.811Z,66.43
2018-10-17T09:12:31.300Z,66.44
2018-10-17T09:14:59.780Z,66.35
2018-10-17T09:17:28.255Z,65.99
2018-10-17T09:19:56.980Z,66.48
2018-10-17T09:22:25.473Z,66.51
2018-10-17T09:24:53.810Z,66.36
2018-10-17T09:27:22.259Z,66.69
2018-10-17T09:29:50.732Z,66.92
2018-10-17T09:32:19.215Z,66.36
2018-10-17T09:34:47.723Z,66.58
2018-10-17T09:37:16.219Z,66.17
2018-10-17T09:39:44.700Z,66.74
2018-10-17T09:42:13.275Z,66.74
2018-10-17T09:44:41.670Z,66.33
2018-10-17T09:47:10.170Z,66.87
2018-10-17T09:49:38.643Z,66.22
2018-10-17T09:52:07.182Z,67.07
2018-10-17T09:54:36.465Z,66.19
2018-10-17T09:57:04.993Z,66.20
2018-10-17T09:59:33.476Z,66.73
2018-10-17T10:02:01.976Z,67.12
2018-10-17T10:04:30.471Z,66.64
2018-10-17T10:06:58.947Z,67.01
2018-10-17T10:09:27.416Z,66.83
2018-10-17T10:11:55.930Z,66.22
2018-10-17T10:14:24.439Z,66.03
2018-10-17T10:16:52.930Z,65.90
2018-10-17T10:19:21.428Z,66.51
2018-10-17T10:21:49.890Z,65.93
2018-10-17T10:24:18.416Z,66.45
2018-10-17T10:26:46.878Z,66.43
2018-10-17T10:29:15.368Z,66.05
2018-10-17T10:31:43.858Z,66.33
2018-10-17T10:34:12.415Z,65.54
2018-10-17T10:36:40.830Z,65.79
2018-10-17T10:39:10.802Z,65.76
2018-10-17T10:41:39.499Z,66.55
2018-10-17T10:44:08.821Z,66.09
2018-10-17T10:46:37.265Z,66.77
2018-10-17T10:49:05.844Z,66.45
2018-10-17T10:51:34.393Z,66.40
2018-10-17T10:54:02.838Z,65.93
2018-10-17T10:56:31.323Z,66.22
2018-10-17T10:58:59.825Z,65.69
2018-10-17T11:01:28.434Z,66.22
2018-10-17T11:03:56.909Z,65.77
2018-10-17T11:06:25.378Z,65.79
2018-10-17T11:08:53.859Z,65.73
2018-10-17T11:11:22.322Z,65.79
2018-10-17T11:13:50.841Z,65.60
2018-10-17T11:16:19.314Z,65.77
2018-10-17T11:18:47.785Z,66.38
2018-10-17T11:21:16.343Z,66.67
2018-10-17T11:23:44.764Z,65.92
2018-10-17T11:26:13.234Z,66.75
2018-10-17T11:28:41.717Z,66.41
2018-10-17T11:31:10.202Z,66.17
2018-10-17T11:33:38.669Z,66.43
2018-10-17T11:36:07.168Z,66.35
2018-10-17T11:38:35.635Z,65.81
2018-10-17T11:41:04.193Z,66.04
2018-10-17T11:43:32.611Z,66.36
2018-10-17T11:46:01.095Z,65.92
2018-10-17T11:48:29.585Z,66.00
2018-10-17T11:50:58.109Z,65.82
2018-10-17T11:53:26.696Z,65.92
2018-10-17T11:55:55.166Z,65.98
2018-10-17T11:58:23.639Z,66.65
2018-10-17T12:00:52.137Z,66.73
2018-10-17T12:03:20.623Z,66.83
2018-10-17T12:05:49.347Z,66.76
2018-10-17T12:08:17.610Z,66.54
2018-10-17T12:10:46.086Z,66.19
2018-10-17T12:13:14.564Z,66.65
2018-10-17T12:15:43.896Z,67.02
2018-10-17T12:18:12.955Z,66.46
2018-10-17T12:20:41.375Z,66.74
2018-10-17T12:23:09.874Z,66.44
2018-10-17T12:25:38.350Z,66.39
2018-10-17T12:28:07.038Z,66.34
2018-10-17T12:30:35.371Z,66.37
2018-10-17T12:33:03.907Z,66.34
2018-10-17T12:35:32.341Z,66.94
2018-10-17T12:38:00.815Z,66.54
2018-10-17T12:40:29.423Z,67.12
2018-10-17T12:42:57.808Z,66.61
2018-10-17T12:45:26.293Z,67.05
2018-10-17T12:47:54.806Z,66.81
2018-10-17T12:50:23.412Z,67.18
2018-10-17T12:52:51.915Z,67.06
2018-10-17T12:55:20.339Z,66.70
2018-10-17T12:57:48.829Z,66.69
2018-10-17T13:00:17.332Z,66.78
2018-10-17T13:02:45.820Z,66.65
2018-10-17T13:05:14.412Z,67.27
2018-10-17T13:07:42.819Z,66.68
2018-10-17T13:10:11.977Z,66.72
2018-10-17T13:12:40.775Z,66.71
2018-10-17T13:15:10.437Z,67.19
2018-10-17T13:17:38.860Z,66.92
2018-10-17T13:20:07.335Z,67.33
2018-10-17T13:22:35.839Z,67.05
2018-10-17T13:25:04.355Z,67.07
2018-10-17T13:27:32.830Z,67.12
2018-10-17T13:30:01.377Z,66.74
2018-10-17T13:32:29.875Z,67.02
2018-10-17T13:34:58.367Z,66.84
2018-10-17T13:37:26.898Z,67.21
2018-10-17T13:39:55.363Z,67.44
2018-10-17T13:42:24.347Z,67.19
2018-10-17T13:44:52.840Z,67.34
2018-10-17T13:47:21.403Z,67.37
2018-10-17T13:49:49.802Z,66.73
2018-10-17T13:52:18.270Z,66.90
2018-10-17T13:54:47.043Z,67.06
2018-10-17T13:57:15.502Z,67.03
2018-10-17T13:59:44.043Z,67.74
2018-10-17T14:02:12.487Z,67.42
2018-10-17T14:04:40.972Z,67.13
2018-10-17T14:07:09.494Z,67.57
2018-10-17T14:09:37.966Z,67.63
2018-10-17T14:12:07.070Z,67.18
2018-10-17T14:14:35.498Z,67.65
2018-10-17T14:17:03.972Z,67.74
2018-10-17T14:19:32.497Z,67.33
2018-10-17T14:22:01.077Z,67.33
2018-10-17T14:24:29.543Z,67.65
2018-10-17T14:26:58.075Z,67.64
2018-10-17T14:29:26.534Z,67.63
2018-10-17T14:31:55.175Z,67.59
2018-10-17T14:34:23.638Z,67.42
2018-10-17T14:36:52.179Z,67.40
2018-10-17T14:39:20.735Z,67.84
2018-10-17T14:41:49.165Z,67.84
2018-10-17T14:44:17.630Z,67.43
2018-10-17T14:46:46.111Z,67.45
2018-10-17T14:49:14.603Z,67.77
2018-10-17T14:51:43.076Z,67.38
2018-10-17T14:54:11.583Z,67.50
2018-10-17T14:56:40.106Z,67.46
2018-10-17T14:59:08.634Z,67.35
2018-10-17T15:01:37.099Z,67.74
2018-10-17T15:04:05.589Z,67.81
2018-10-17T15:06:34.141Z,67.46
2018-10-17T15:09:02.745Z,67.94
2018-10-17T15:11:31.220Z,67.90
2018-10-17T15:13:59.729Z,67.53
2018-10-17T15:16:28.343Z,67.54
2018-10-17T15:18:56.803Z,67.73
2018-10-17T15:21:25.266Z,67.58
2018-10-17T15:23:53.797Z,67.98
2018-10-17T15:26:22.294Z,67.46
2018-10-17T15:28:50.766Z,67.26
2018-10-17T15:31:19.385Z,67.67
2018-10-17T15:33:47.790Z,67.57
2018-10-17T15:36:16.374Z,68.10
2018-10-17T15:38:44.756Z,68.19
2018-10-17T15:41:13.222Z,67.67
2018-10-17T15:43:41.794Z,67.94
2018-10-17T15:46:10.242Z,68.14
2018-10-17T15:48:38.712Z,68.00
2018-10-17T15:51:07.280Z,68.34
2018-10-17T15:53:35.766Z,67.70
2018-10-17T15:56:04.530Z,67.79
2018-10-17T15:58:33.001Z,67.73
2018-10-17T16:01:01.552Z,67.91
2018-10-17T16:03:29.987Z,67.79
2018-10-17T16:05:58.465Z,68.27
2018-10-17T16:08:26.992Z,68.25
2018-10-17T16:10:55.455Z,68.43
2018-10-17T16:13:23.955Z,68.32
2018-10-17T16:15:52.439Z,68.14
2018-10-17T16:18:20.902Z,68.34
2018-10-17T16:20:49.375Z,67.81
2018-10-17T16:23:17.928Z,68.28
2018-10-17T16:25:46.357Z,68.04
2018-10-17T16:28:14.823Z,67.92
2018-10-17T16:30:43.384Z,68.00
2018-10-17T16:33:11.814Z,68.54
2018-10-17T16:35:40.285Z,68.27
2018-10-17T16:38:08.784Z,68.09
2018-10-17T16:40:37.277Z,68.55
2018-10-17T16:43:06.098Z,68.55
2018-10-17T16:45:34.581Z,68.53
2018-10-17T16:48:03.088Z,68.67
2018-10-17T16:50:31.650Z,68.20
2018-10-17T16:53:00.074Z,68.59
2018-10-17T16:55:28.538Z,68.77
2018-10-17T16:57:57.035Z,68.64
2018-10-17T17:00:25.527Z,68.18
2018-10-17T17:02:54.042Z,68.82
2018-10-17T17:05:22.506Z,68.56
2018-10-17T17:07:50.967Z,68.04
2018-10-17T17:10:19.434Z,68.79
2018-10-17T17:12:47.900Z,68.20
2018-10-17T17:15:16.437Z,68.76
2018-10-17T17:17:44.887Z,68.67
2018-10-17T17:20:13.365Z,68.69
2018-10-17T17:22:42.012Z,68.72
2018-10-17T17:25:10.726Z,68.32
2018-10-17T17:27:39.423Z,68.21
2018-10-17T17:30:12.567Z,68.74
2018-10-17T17:32:41.048Z,68.82
2018-10-17T17:35:09.556Z,68.83
2018-10-17T17:37:38.018Z,68.32
2018-10-17T17:40:07.948Z,68.29
2018-10-17T17:42:36.410Z,68.80
2018-10-17T17:45:04.883Z,68.48
2018-10-17T17:47:33.367Z,68.92
2018-10-17T17:50:01.837Z,68.56
2018-10-17T17:52:30.349Z,68.67
2018-10-17T17:54:58.872Z,68.67
2018-10-17T17:57:27.375Z,68.99
2018-10-17T17:59:55.855Z,68.56
2018-10-17T18:02:24.355Z,68.38
2018-10-17T18:04:52.815Z,68.47
2018-10-17T18:07:21.364Z,68.93
2018-10-17T18:09:49.891Z,68.90
2018-10-17T18:12:18.380Z,68.93
2018-10-17T18:14:46.851Z,68.91
2018-10-17T18:17:15.335Z,68.55
2018-10-17T18:19:43.866Z,69.12
2018-10-17T18:22:12.367Z,68.67
2018-10-17T18:24:40.988Z,68.47
2018-10-17T18:27:09.471Z,68.32
2018-10-17T18:29:37.943Z,68.80
2018-10-17T18:32:06.488Z,68.74
2018-10-17T18:34:34.976Z,68.57
2018-10-17T18:37:03.459Z,69.08
2018-10-17T18:39:31.943Z,68.49
2018-10-17T18:42:00.443Z,69.03
2018-10-17T18:44:28.953Z,68.54
2018-10-17T18:46:57.427Z,68.89
2018-10-17T18:49:25.912Z,68.61
2018-10-17T18:51:54.407Z,68.49
2018-10-17T18:54:22.873Z,69.21
2018-10-17T18:56:51.389Z,68.63
2018-10-17T18:59:19.878Z,69.04
2018-10-17T19:01:48.376Z,69.10
2018-10-17T19:04:16.845Z,69.18
2018-10-17T19:06:45.323Z,68.48
2018-10-17T19:09:14.715Z,68.78
2018-10-17T19:11:43.139Z,68.84
2018-10-17T19:14:11.649Z,68.75
2018-10-17T19:16:40.127Z,69.39
2018-10-17T19:19:08.596Z,68.72
2018-10-17T19:21:37.089Z,68.87
2018-10-17T19:24:05.949Z,68.68
2018-10-17T19:26:34.440Z,69.37
2018-10-17T19:29:02.922Z,69.16
2018-10-17T19:31:31.419Z,69.09
2018-10-17T19:33:59.898Z,69.26
2018-10-17T19:36:28.387Z,69.16
2018-10-17T19:38:56.897Z,69.25
2018-10-17T19:41:25.346Z,68.80
2018-10-17T19:43:53.809Z,69.00
2018-10-17T19:46:22.297Z,68.70
2018-10-17T19:48:50.803Z,69.33
2018-10-17T19:51:19.276Z,68.89
2018-10-17T19:53:47.764Z,69.42
2018-10-17T19:56:16.235Z,69.08
2018-10-17T19:58:44.705Z,68.87
2018-10-17T20:01:13.196Z,68.93
2018-10-17T20:03:41.675Z,68.84
2018-10-17T20:06:10.165Z,69.33
2018-10-17T20:08:38.672Z,68.85
2018-10-17T20:11:07.174Z,68.87
2018-10-17T20:13:35.647Z,69.18
2018-10-17T20:16:04.193Z,68.72
2018-10-17T20:18:32.680Z,69.07
2018-10-17T20:21:01.180Z,68.89
2018-10-17T20:23:29.659Z,69.24
2018-10-17T20:25:58.138Z,69.32
2018-10-17T20:28:26.723Z,68.86
2018-10-17T20:30:55.211Z,68.81
2018-10-17T20:33:23.699Z,69.21
2018-10-17T20:35:52.184Z,69.11
2018-10-17T20:38:20.677Z,68.73
2018-10-17T20:40:49.158Z,68.92
2018-10-17T20:43:17.832Z,68.97
2018-10-17T20:45:46.330Z,69.17
2018-10-17T20:48:14.810Z,68.77
2018-10-17T20:50:43.292Z,69.39
2018-10-17T20:53:11.763Z,68.74
2018-10-17T20:55:40.266Z,68.81
2018-10-17T20:58:08.791Z,68.71
2018-10-17T21:00:37.250Z,68.87
2018-10-17T21:03:05.887Z,69.18
2018-10-17T21:05:34.349Z,69.25
2018-10-17T21:08:02.831Z,69.28
2018-10-17T21:10:31.320Z,69.15
2018-10-17T21:12:59.823Z,68.84
2018-10-17T21:15:28.317Z,68.85
2018-10-17T21:17:56.807Z,69.29
2018-10-17T21:20:25.285Z,68.87
2018-10-17T21:22:53.759Z,69.43
2018-10-17T21:25:22.236Z,68.82
2018-10-17T21:27:50.710Z,68.90
2018-10-17T21:30:19.206Z,69.32
2018-10-17T21:32:47.687Z,68.85
2018-10-17T21:35:16.170Z,69.15
2018-10-17T21:37:44.738Z,68.59
2018-10-17T21:40:13.159Z,69.31
2018-10-17T21:42:41.707Z,69.05
2018-10-17T21:45:10.187Z,69.24
2018-10-17T21:47:38.668Z,69.26
2018-10-17T21:50:07.237Z,68.80
2018-10-17T21:52:35.694Z,69.22
2018-10-17T21:55:04.178Z,68.81
2018-10-17T21:57:32.674Z,68.66
2018-10-17T22:00:01.147Z,68.68
2018-10-17T22:02:29.622Z,68.73
2018-10-17T22:04:58.104Z,69.30
2018-10-17T22:07:26.571Z,68.72
2018-10-17T22:09:55.125Z,69.28
2018-10-17T22:12:23.547Z,69.20
2018-10-17T22:14:52.010Z,69.19
2018-10-17T22:17:25.794Z,68.33
2018-10-17T22:19:54.305Z,68.52
2018-10-17T22:22:22.872Z,69.08
2018-10-17T22:24:51.352Z,68.90
2018-10-17T22:27:19.910Z,69.01
2018-10-17T22:29:48.484Z,68.69
2018-10-17T22:32:16.999Z,68.71
2018-10-17T22:34:45.459Z,68.78
2018-10-17T22:37:13.954Z,68.61
2018-10-17T22:39:42.429Z,68.75
2018-10-17T22:42:10.905Z,68.61
2018-10-17T22:44:39.381Z,68.61
2018-10-17T22:47:07.874Z,68.58
2018-10-17T22:49:36.351Z,68.41
2018-10-17T22:52:04.853Z,68.47
2018-10-17T22:54:33.321Z,68.96
2018-10-17T22:57:01.798Z,68.30
2018-10-17T22:59:30.306Z,68.27
2018-10-17T23:01:58.862Z,68.63
2018-10-17T23:04:27.367Z,68.58
2018-10-17T23:06:55.859Z,68.55
2018-10-17T23:09:24.360Z,68.69
2018-10-17T23:11:52.842Z,68.57
2018-10-17T23:14:21.307Z,68.65
2018-10-17T23:16:49.770Z,69.27
2018-10-17T23:19:18.287Z,68.70
2018-10-17T23:21:46.795Z,68.63
2018-10-17T23:24:15.287Z,68.44
2018-10-17T23:26:43.756Z,68.62
2018-10-17T23:29:12.232Z,68.59
2018-10-17T23:31:40.716Z,69.02
2018-10-17T23:34:09.186Z,69.00
2018-10-17T23:36:37.672Z,68.49
2018-10-17T23:39:08.542Z,68.31
2018-10-17T23:41:37.174Z,68.32
2018-10-17T23:44:05.724Z,68.57
2018-10-17T23:46:34.214Z,69.03
2018-10-17T23:49:02.691Z,68.67
2018-10-17T23:51:31.166Z,68.49
2018-10-17T23:53:59.651Z,68.85
2018-10-17T23:56:28.149Z,68.37
2018-10-17T23:58:56.626Z,69.13
